createdAt,value
2023-06-30T00:02:15.195Z,100045.81
2023-06-30T00:05:26.795Z,100048.78
2023-06-30T00:08:31.980Z,100051.88
2023-06-30T00:11:34.889Z,100042.16
2023-06-30T00:14:41.451Z,100048.41
2023-06-30T00:17:46.027Z,100046.22
2023-06-30T00:20:51.724Z,100052.19
2023-06-30T00:23:55.465Z,100055.62
2023-06-30T00:26:58.969Z,100045.41
2023-06-30T00:30:02.639Z,100045.72
2023-06-30T00:33:07.186Z,100043.09
2023-06-30T00:36:12.137Z,100047.84
2023-06-30T00:39:15.704Z,100043.50
2023-06-30T00:42:26.373Z,100035.72
2023-06-30T00:45:30.827Z,100033.28
2023-06-30T00:48:36.879Z,100030.16
2023-06-30T00:51:42.302Z,100037.41
2023-06-30T00:54:45.510Z,100035.91
2023-06-30T00:57:48.412Z,100037.88
2023-06-30T01:00:55.195Z,100031.41
2023-06-30T01:04:05.798Z,100030.41
2023-06-30T01:07:17.308Z,100026.59
2023-06-30T01:10:23.490Z,100023.97
2023-06-30T01:13:27.748Z,100019.81
2023-06-30T01:16:31.547Z,100025.88
2023-06-30T01:19:40.442Z,100024.59
2023-06-30T01:22:53.978Z,100024.94
2023-06-30T01:25:57.407Z,100030.69
2023-06-30T01:29:01.037Z,100026.38
2023-06-30T01:32:04.541Z,100022.06
2023-06-30T01:35:08.506Z,100021.56
2023-06-30T01:38:10.888Z,100020.22
2023-06-30T01:41:15.486Z,100018.06
2023-06-30T01:44:19.487Z,100014.91
2023-06-30T01:47:22.247Z,100007.84
2023-06-30T01:50:30.513Z,100017.16
2023-06-30T01:53:33.536Z,100013.72
2023-06-30T01:56:37.955Z,100011.25
2023-06-30T01:59:41.017Z,100009.91
2023-06-30T02:02:44.328Z,100011.75
2023-06-30T02:05:48.011Z,100011.09
2023-06-30T02:08:52.246Z,100010.81
2023-06-30T02:11:56.232Z,100007.31
2023-06-30T02:14:59.649Z,100012.75
2023-06-30T02:18:03.240Z,100001.34
2023-06-30T02:21:08.189Z,100002.00
2023-06-30T02:24:11.687Z,100009.44
2023-06-30T02:27:15.398Z,100009.63
2023-06-30T02:30:20.745Z,100004.13
2023-06-30T02:33:25.936Z,100000.13
2023-06-30T02:36:30.394Z,99999.47
2023-06-30T02:39:33.469Z,100000.13
2023-06-30T02:42:37.408Z,99996.34
2023-06-30T02:45:42.196Z,99996.03
2023-06-30T02:48:49.150Z,99991.09
2023-06-30T02:51:52.523Z,99996.97
2023-06-30T02:54:56.020Z,99994.16
2023-06-30T02:58:01.534Z,100000.84
2023-06-30T03:01:09.911Z,100002.13
2023-06-30T03:04:17.488Z,99993.59
2023-06-30T03:07:20.601Z,99999.25
2023-06-30T03:10:24.389Z,100006.13
2023-06-30T03:13:26.865Z,100000.16
2023-06-30T03:16:31.930Z,100002.81
2023-06-30T03:19:34.929Z,100010.75
2023-06-30T03:22:39.439Z,100003.91
2023-06-30T03:25:42.854Z,99999.63
2023-06-30T03:28:46.310Z,99998.12
2023-06-30T03:31:50.094Z,100001.44
2023-06-30T03:34:53.351Z,99997.44
2023-06-30T03:37:56.776Z,99995.34
2023-06-30T03:41:01.303Z,99991.41
2023-06-30T03:44:04.876Z,100002.63
2023-06-30T03:47:09.285Z,99997.84
2023-06-30T03:50:12.976Z,100006.13
2023-06-30T03:53:17.916Z,99995.38
2023-06-30T03:56:21.403Z,99997.09
2023-06-30T03:59:25.638Z,99996.00
2023-06-30T04:02:29.930Z,100002.66
2023-06-30T04:05:32.536Z,100003.22
2023-06-30T04:08:35.822Z,100004.75
2023-06-30T04:11:39.181Z,99999.19
2023-06-30T04:14:42.242Z,99997.09
2023-06-30T04:17:45.467Z,99997.47
2023-06-30T04:20:49.483Z,99997.12
2023-06-30T04:23:52.909Z,99996.00
2023-06-30T04:26:57.761Z,100005.00
2023-06-30T04:30:00.742Z,100002.53
2023-06-30T04:33:17.690Z,99998.44
2023-06-30T04:36:22.595Z,99999.06
2023-06-30T04:39:28.043Z,100001.09
2023-06-30T04:42:32.475Z,99998.50
2023-06-30T04:45:36.377Z,100000.25
2023-06-30T04:48:40.083Z,99993.25
2023-06-30T04:51:43.403Z,99991.25
2023-06-30T04:54:47.298Z,99990.31
2023-06-30T04:57:51.018Z,99991.63
2023-06-30T05:00:57.998Z,99982.81
2023-06-30T05:04:02.912Z,99986.97
2023-06-30T05:07:06.091Z,99983.50
2023-06-30T05:10:17.198Z,99984.44
2023-06-30T05:13:21.933Z,99988.34
2023-06-30T05:16:31.426Z,99982.31
2023-06-30T05:19:38.961Z,99991.13
2023-06-30T05:22:43.310Z,99988.19
2023-06-30T05:25:49.029Z,99984.53
2023-06-30T05:29:03.451Z,99986.72
2023-06-30T05:32:09.657Z,99993.37
2023-06-30T05:35:13.049Z,99988.50
2023-06-30T05:38:16.071Z,99986.81
2023-06-30T05:41:19.857Z,99986.06
2023-06-30T05:44:23.290Z,99995.22
2023-06-30T05:47:27.071Z,99992.44
2023-06-30T05:50:32.602Z,99987.53
2023-06-30T05:53:37.767Z,100001.41
2023-06-30T05:56:44.018Z,99995.94
2023-06-30T05:59:47.034Z,100001.69
2023-06-30T06:02:50.774Z,99994.69
2023-06-30T06:05:54.545Z,99997.50
2023-06-30T06:08:58.081Z,100000.37
2023-06-30T06:12:03.068Z,99999.13
2023-06-30T06:15:06.871Z,99998.09
2023-06-30T06:18:09.566Z,100000.03
2023-06-30T06:21:13.587Z,99999.41
2023-06-30T06:24:19.894Z,100009.56
2023-06-30T06:27:22.931Z,99991.84
2023-06-30T06:30:28.203Z,99995.72
2023-06-30T06:33:32.995Z,99993.34
2023-06-30T06:36:35.373Z,99993.63
2023-06-30T06:39:42.127Z,100000.22
2023-06-30T06:42:45.043Z,99987.41
2023-06-30T06:45:48.794Z,99993.59
2023-06-30T06:48:51.797Z,99991.50
2023-06-30T06:51:57.273Z,99989.69
2023-06-30T06:55:00.250Z,99985.81
2023-06-30T06:58:03.155Z,99988.47
2023-06-30T07:01:07.587Z,99989.94
2023-06-30T07:04:11.533Z,99987.69
2023-06-30T07:07:14.652Z,99987.28
2023-06-30T07:10:19.087Z,99985.63
2023-06-30T07:13:23.475Z,99991.38
2023-06-30T07:16:28.387Z,99986.44
2023-06-30T07:19:33.070Z,99992.13
2023-06-30T07:22:36.708Z,99990.16
2023-06-30T07:25:39.778Z,99984.47
2023-06-30T07:28:43.694Z,99991.81
2023-06-30T07:31:48.883Z,99993.34
2023-06-30T07:34:53.863Z,99992.72
2023-06-30T07:37:57.870Z,99994.94
2023-06-30T07:41:01.123Z,99997.81
2023-06-30T07:44:05.903Z,100011.47
2023-06-30T07:47:11.865Z,100004.97
2023-06-30T07:50:15.373Z,100009.59
2023-06-30T07:53:18.045Z,100014.38
2023-06-30T07:56:20.932Z,100012.81
2023-06-30T07:59:23.638Z,100019.22
2023-06-30T08:02:26.944Z,100013.56
2023-06-30T08:05:29.873Z,100007.16
2023-06-30T08:08:33.504Z,99991.25
2023-06-30T08:11:36.621Z,99983.31
2023-06-30T08:14:39.616Z,99986.75
2023-06-30T08:17:55.309Z,99993.63
2023-06-30T08:21:00.167Z,99993.63
2023-06-30T08:24:02.582Z,99987.97
2023-06-30T08:27:05.945Z,99991.63
2023-06-30T08:30:08.576Z,99986.22
2023-06-30T08:33:20.221Z,99989.53
2023-06-30T08:36:30.132Z,99980.91
2023-06-30T08:39:33.643Z,99983.91
2023-06-30T08:42:38.448Z,99982.19
2023-06-30T08:45:42.868Z,99978.84
2023-06-30T08:48:48.484Z,99965.47
2023-06-30T08:51:58.731Z,99965.84
2023-06-30T08:55:04.441Z,99958.69
2023-06-30T08:58:13.180Z,99960.97
2023-06-30T09:01:24.262Z,99960.63
2023-06-30T09:04:28.038Z,99956.00
2023-06-30T09:07:34.344Z,99949.91
2023-06-30T09:10:39.353Z,99956.22
2023-06-30T09:13:42.742Z,99947.56
2023-06-30T09:16:46.053Z,99944.72
2023-06-30T09:19:48.940Z,99945.34
2023-06-30T09:22:57.119Z,99936.28
2023-06-30T09:26:00.346Z,99938.78
2023-06-30T09:29:03.623Z,99932.44
2023-06-30T09:32:07.670Z,99937.22
2023-06-30T09:35:14.420Z,99936.69
2023-06-30T09:38:18.652Z,99927.56
2023-06-30T09:41:22.332Z,99916.69
2023-06-30T09:44:24.929Z,99920.84
2023-06-30T09:47:29.019Z,99913.22
2023-06-30T09:50:32.507Z,99911.81
2023-06-30T09:53:40.993Z,99907.53
2023-06-30T09:56:44.360Z,99908.63
2023-06-30T09:59:49.206Z,99914.03
2023-06-30T10:03:02.901Z,99918.38
2023-06-30T10:06:06.733Z,99918.81
2023-06-30T10:09:09.732Z,99912.84
2023-06-30T10:12:14.164Z,99916.00
2023-06-30T10:15:17.745Z,99920.94
2023-06-30T10:18:21.778Z,99917.34
2023-06-30T10:21:24.696Z,99914.28
2023-06-30T10:24:28.816Z,99915.22
2023-06-30T10:27:32.778Z,99911.16
2023-06-30T10:30:38.116Z,99909.63
2023-06-30T10:33:41.165Z,99908.91
2023-06-30T10:36:44.409Z,99913.28
2023-06-30T10:39:49.295Z,99908.25
2023-06-30T10:42:53.145Z,99904.38
2023-06-30T10:46:11.341Z,99915.56
2023-06-30T10:49:19.084Z,99910.00
2023-06-30T10:52:28.850Z,99905.03
2023-06-30T10:55:33.678Z,99901.44
2023-06-30T10:58:42.827Z,99892.22
2023-06-30T11:02:04.549Z,99892.69
2023-06-30T11:05:25.764Z,99895.41
2023-06-30T11:08:29.658Z,99888.94
2023-06-30T11:11:53.937Z,99890.28
2023-06-30T11:14:59.064Z,99880.47
2023-06-30T11:18:03.369Z,99873.41
2023-06-30T11:21:06.604Z,99876.69
2023-06-30T11:24:18.406Z,99867.28
2023-06-30T11:27:21.725Z,99858.53
2023-06-30T11:30:27.549Z,99859.47
2023-06-30T11:33:30.555Z,99861.00
2023-06-30T11:36:33.837Z,99860.12
2023-06-30T11:39:37.132Z,99842.44
2023-06-30T11:42:43.338Z,99848.63
2023-06-30T11:45:57.446Z,99846.31
2023-06-30T11:49:04.754Z,99850.97
2023-06-30T11:52:08.850Z,99836.94
2023-06-30T11:55:14.243Z,99841.66
2023-06-30T11:58:24.451Z,99827.41
2023-06-30T12:01:28.431Z,99825.84
2023-06-30T12:04:35.582Z,99821.31
2023-06-30T12:07:38.900Z,99811.00
2023-06-30T12:10:44.782Z,99808.13
2023-06-30T12:13:49.041Z,99812.44
2023-06-30T12:16:53.393Z,99813.84
2023-06-30T12:19:57.475Z,99801.13
2023-06-30T12:23:00.781Z,99805.13
2023-06-30T12:26:07.138Z,99798.78
2023-06-30T12:29:10.111Z,99791.41
2023-06-30T12:32:13.125Z,99798.13
2023-06-30T12:35:15.376Z,99789.84
2023-06-30T12:38:19.976Z,99791.22
2023-06-30T12:41:22.429Z,99785.81
2023-06-30T12:44:25.358Z,99783.28
2023-06-30T12:47:29.084Z,99782.03
2023-06-30T12:50:31.440Z,99783.59
2023-06-30T12:53:34.078Z,99780.34
2023-06-30T12:56:37.026Z,99773.13
2023-06-30T12:59:39.387Z,99769.59
2023-06-30T13:02:42.171Z,99771.34
2023-06-30T13:05:45.869Z,99774.28
2023-06-30T13:08:48.448Z,99773.22
2023-06-30T13:11:54.080Z,99765.13
2023-06-30T13:14:59.963Z,99765.69
2023-06-30T13:18:02.958Z,99754.00
2023-06-30T13:21:07.773Z,99755.25
2023-06-30T13:24:11.174Z,99740.88
2023-06-30T13:27:14.260Z,99748.38
2023-06-30T13:30:17.444Z,99733.59
2023-06-30T13:33:21.408Z,99729.88
2023-06-30T13:36:27.445Z,99738.16
2023-06-30T13:39:32.000Z,99726.75
2023-06-30T13:42:35.875Z,99720.31
2023-06-30T13:45:39.399Z,99719.06
2023-06-30T13:48:42.215Z,99709.72
2023-06-30T13:51:45.036Z,99706.28
2023-06-30T13:54:48.022Z,99699.50
2023-06-30T13:57:50.611Z,99692.66
2023-06-30T14:00:53.460Z,99689.34
2023-06-30T14:03:56.735Z,99690.38
2023-06-30T14:06:59.601Z,99693.41
2023-06-30T14:10:02.697Z,99692.91
2023-06-30T14:13:05.228Z,99679.19
2023-06-30T14:16:08.248Z,99672.22
2023-06-30T14:19:10.537Z,99663.63
2023-06-30T14:22:13.927Z,99658.31
2023-06-30T14:25:23.330Z,99660.50
2023-06-30T14:28:25.944Z,99653.09
2023-06-30T14:31:28.582Z,99655.03
2023-06-30T14:34:32.213Z,99649.63
2023-06-30T14:37:35.812Z,99640.22
2023-06-30T14:40:39.622Z,99627.31
2023-06-30T14:43:42.408Z,99633.03
2023-06-30T14:46:44.834Z,99633.09
2023-06-30T14:49:48.138Z,99626.34
2023-06-30T14:52:50.644Z,99619.28
2023-06-30T14:55:53.204Z,99613.28
2023-06-30T14:58:56.534Z,99612.94
2023-06-30T15:01:59.674Z,99601.88
2023-06-30T15:05:02.766Z,99598.00
2023-06-30T15:08:07.163Z,99599.09
2023-06-30T15:11:10.202Z,99586.50
2023-06-30T15:14:13.310Z,99582.53
2023-06-30T15:17:16.188Z,99582.91
2023-06-30T15:20:19.204Z,99581.25
2023-06-30T15:23:22.279Z,99571.91
2023-06-30T15:26:25.173Z,99572.81
2023-06-30T15:29:27.660Z,99569.22
2023-06-30T15:32:30.773Z,99567.91
2023-06-30T15:35:33.964Z,99570.53
2023-06-30T15:38:37.122Z,99570.88
2023-06-30T15:41:39.850Z,99561.09
2023-06-30T15:44:42.589Z,99565.03
2023-06-30T15:47:45.450Z,99562.56
2023-06-30T15:50:50.240Z,99550.91
2023-06-30T15:53:53.015Z,99549.53
2023-06-30T15:56:55.486Z,99555.47
2023-06-30T15:59:58.586Z,99542.28
2023-06-30T16:03:01.978Z,99540.12
2023-06-30T16:06:05.238Z,99544.66
2023-06-30T16:09:10.917Z,99543.53
2023-06-30T16:12:14.145Z,99537.78
2023-06-30T16:15:16.584Z,99534.50
2023-06-30T16:18:19.663Z,99536.81
2023-06-30T16:21:22.451Z,99536.91
2023-06-30T16:24:29.638Z,99533.41
2023-06-30T16:27:32.882Z,99530.91
2023-06-30T16:30:35.407Z,99524.75
2023-06-30T16:33:38.286Z,99524.44
2023-06-30T16:36:41.292Z,99526.59
2023-06-30T16:39:44.261Z,99526.09
2023-06-30T16:42:48.923Z,99523.84
2023-06-30T16:45:52.068Z,99515.63
2023-06-30T16:48:55.606Z,99512.13
2023-06-30T16:51:58.743Z,99508.88
2023-06-30T16:55:01.746Z,99504.75
2023-06-30T16:58:04.579Z,99512.50
2023-06-30T17:01:07.341Z,99517.44
2023-06-30T17:04:10.442Z,99505.00
2023-06-30T17:07:13.719Z,99517.62
2023-06-30T17:10:16.730Z,99516.94
2023-06-30T17:13:19.721Z,99514.97
2023-06-30T17:16:25.088Z,99512.41
2023-06-30T17:19:29.582Z,99512.28
2023-06-30T17:22:32.559Z,99507.16
2023-06-30T17:25:35.783Z,99508.16
2023-06-30T17:28:38.870Z,99513.94
2023-06-30T17:31:42.969Z,99514.50
2023-06-30T17:34:46.468Z,99522.22
2023-06-30T17:37:50.129Z,99512.13
2023-06-30T17:40:54.107Z,99506.00
2023-06-30T17:43:56.179Z,99513.94
2023-06-30T17:46:59.642Z,99513.22
2023-06-30T17:50:02.950Z,99513.25
2023-06-30T17:53:05.617Z,99517.12
2023-06-30T17:56:09.438Z,99510.06
2023-06-30T17:59:13.763Z,99510.81
2023-06-30T18:02:18.538Z,99504.19
2023-06-30T18:05:21.779Z,99506.31
2023-06-30T18:08:25.624Z,99506.34
2023-06-30T18:11:29.682Z,99500.06
2023-06-30T18:14:33.818Z,99503.84
2023-06-30T18:17:37.270Z,99505.87
2023-06-30T18:20:41.474Z,99502.88
2023-06-30T18:23:45.145Z,99497.75
2023-06-30T18:26:50.574Z,99499.94
2023-06-30T18:29:55.538Z,99506.09
2023-06-30T18:32:58.561Z,99507.22
2023-06-30T18:36:03.494Z,99511.72
2023-06-30T18:39:07.456Z,99508.66
2023-06-30T18:42:10.837Z,99506.13
2023-06-30T18:45:13.678Z,99508.16
2023-06-30T18:48:18.731Z,99507.28
2023-06-30T18:51:21.534Z,99510.72
2023-06-30T18:54:24.833Z,99512.75
2023-06-30T18:57:28.359Z,99513.69
2023-06-30T19:00:31.527Z,99519.63
2023-06-30T19:03:34.938Z,99522.06
2023-06-30T19:06:40.730Z,99523.22
2023-06-30T19:09:44.600Z,99526.00
2023-06-30T19:12:47.815Z,99534.53
2023-06-30T19:15:50.968Z,99536.91
2023-06-30T19:18:54.277Z,99544.16
2023-06-30T19:21:57.922Z,99538.50
2023-06-30T19:25:01.104Z,99546.13
2023-06-30T19:28:04.627Z,99545.59
2023-06-30T19:31:08.969Z,99535.37
2023-06-30T19:34:12.833Z,99540.94
2023-06-30T19:37:16.747Z,99536.69
2023-06-30T19:40:20.568Z,99538.94
2023-06-30T19:43:24.685Z,99537.38
2023-06-30T19:46:30.965Z,99530.66
2023-06-30T19:49:34.231Z,99535.81
2023-06-30T19:52:38.769Z,99538.47
2023-06-30T19:55:42.402Z,99538.47
2023-06-30T19:58:45.875Z,99534.59
2023-06-30T20:01:50.640Z,99537.47
2023-06-30T20:04:54.547Z,99538.72
2023-06-30T20:07:58.208Z,99543.22
2023-06-30T20:11:01.002Z,99533.44
2023-06-30T20:14:03.979Z,99535.28
2023-06-30T20:17:09.866Z,99536.50
2023-06-30T20:20:15.923Z,99535.47
2023-06-30T20:23:18.593Z,99544.47
2023-06-30T20:26:21.910Z,99542.03
2023-06-30T20:29:24.966Z,99541.59
2023-06-30T20:32:29.108Z,99533.84
2023-06-30T20:35:33.149Z,99545.88
2023-06-30T20:38:37.884Z,99537.47
2023-06-30T20:41:41.259Z,99548.31
2023-06-30T20:44:44.619Z,99544.63
2023-06-30T20:47:49.445Z,99537.66
2023-06-30T20:50:53.241Z,99538.06
2023-06-30T20:53:55.640Z,99544.56
2023-06-30T20:57:01.428Z,99542.31
2023-06-30T21:00:06.087Z,99543.72
2023-06-30T21:03:11.063Z,99546.78
2023-06-30T21:06:18.262Z,99542.69
2023-06-30T21:09:21.271Z,99545.97
2023-06-30T21:12:24.646Z,99540.84
2023-06-30T21:15:28.743Z,99543.28
2023-06-30T21:18:31.923Z,99544.91
2023-06-30T21:21:35.962Z,99548.75
2023-06-30T21:24:39.237Z,99542.19
2023-06-30T21:27:42.331Z,99543.22
2023-06-30T21:30:48.105Z,99544.03
2023-06-30T21:33:53.025Z,99541.75
2023-06-30T21:36:56.300Z,99534.38
2023-06-30T21:40:00.146Z,99532.69
2023-06-30T21:43:03.629Z,99534.09
2023-06-30T21:46:14.659Z,99529.81
2023-06-30T21:49:20.046Z,99534.09
2023-06-30T21:52:24.062Z,99531.84
2023-06-30T21:55:28.220Z,99529.56
2023-06-30T21:58:31.796Z,99522.19
2023-06-30T22:01:41.146Z,99530.94
2023-06-30T22:04:45.173Z,99522.53
2023-06-30T22:07:48.734Z,99533.94
2023-06-30T22:10:52.313Z,99527.19
2023-06-30T22:13:55.430Z,99517.78
2023-06-30T22:16:59.443Z,99527.56
2023-06-30T22:20:02.700Z,99533.25
2023-06-30T22:23:06.038Z,99531.97
2023-06-30T22:26:09.486Z,99523.16
2023-06-30T22:29:12.779Z,99521.16
2023-06-30T22:32:16.024Z,99527.38
2023-06-30T22:35:20.047Z,99517.19
2023-06-30T22:38:24.018Z,99528.37
2023-06-30T22:41:28.455Z,99522.56
2023-06-30T22:44:31.668Z,99520.28
2023-06-30T22:47:35.192Z,99514.16
2023-06-30T22:50:38.289Z,99519.47
2023-06-30T22:53:41.647Z,99521.44
2023-06-30T22:56:45.444Z,99512.44
2023-06-30T22:59:50.097Z,99505.69
2023-06-30T23:02:54.718Z,99506.66
2023-06-30T23:05:58.205Z,99513.81
2023-06-30T23:09:02.317Z,99508.66
2023-06-30T23:12:05.830Z,99516.81
2023-06-30T23:15:09.942Z,99503.09
2023-06-30T23:18:21.391Z,99512.44
2023-06-30T23:21:31.087Z,99510.44
2023-06-30T23:24:38.006Z,99500.28
2023-06-30T23:27:41.619Z,99502.41
2023-06-30T23:30:51.005Z,99506.00
2023-06-30T23:33:57.891Z,99500.44
2023-06-30T23:37:02.310Z,99507.59
2023-06-30T23:40:06.468Z,99507.16
2023-06-30T23:43:09.957Z,99505.31
2023-06-30T23:46:30.512Z,99506.75
2023-06-30T23:49:41.434Z,99499.38
2023-06-30T23:52:46.868Z,99504.25
2023-06-30T23:55:53.048Z,99500.97
2023-06-30T23:58:57.067Z,99501.34
